createdAt,value
2023-02-08T00:00:27.853Z,1.36
2023-02-08T00:03:19.158Z,0.88
2023-02-08T00:05:47.010Z,1.24
2023-02-08T00:08:14.854Z,1.00
2023-02-08T00:10:45.875Z,0.80
2023-02-08T00:13:28.613Z,1.06
2023-02-08T00:16:03.171Z,1.30
2023-02-08T00:18:34.193Z,1.17
2023-02-08T00:21:02.004Z,1.02
2023-02-08T00:23:33.784Z,1.14
2023-02-08T00:26:04.195Z,1.22
2023-02-08T00:28:36.020Z,1.34
2023-02-08T00:31:06.653Z,0.92
2023-02-08T00:33:34.934Z,1.48
2023-02-08T00:36:10.179Z,1.46
2023-02-08T00:38:47.438Z,1.62
2023-02-08T00:41:17.839Z,1.54
2023-02-08T00:43:48.647Z,1.88
2023-02-08T00:46:17.954Z,2.26
2023-02-08T00:48:51.577Z,1.89
2023-02-08T00:51:23.411Z,2.57
2023-02-08T00:53:51.257Z,2.58
2023-02-08T00:56:19.087Z,2.55
2023-02-08T00:58:49.039Z,2.53
2023-02-08T01:01:18.349Z,2.19
2023-02-08T01:03:52.237Z,2.15
2023-02-08T01:06:21.978Z,1.85
2023-02-08T01:08:50.294Z,2.15
2023-02-08T01:11:22.270Z,2.06
2023-02-08T01:13:50.534Z,2.11
2023-02-08T01:16:21.214Z,1.89
2023-02-08T01:18:51.031Z,2.09
2023-02-08T01:21:25.768Z,1.80
2023-02-08T01:23:56.990Z,1.99
2023-02-08T01:26:26.194Z,1.95
2023-02-08T01:28:55.540Z,1.85
2023-02-08T01:31:27.983Z,1.49
2023-02-08T01:33:56.440Z,1.63
2023-02-08T01:36:30.200Z,-0.23
2023-02-08T01:38:58.368Z,1.32
2023-02-08T01:41:28.089Z,1.16
2023-02-08T01:44:11.023Z,1.15
2023-02-08T01:46:48.032Z,0.88
2023-02-08T01:49:19.643Z,1.19
2023-02-08T01:51:51.194Z,1.15
2023-02-08T01:54:21.718Z,1.04
2023-02-08T01:56:50.985Z,0.93
2023-02-08T01:59:26.456Z,0.93
2023-02-08T02:01:58.096Z,1.10
2023-02-08T02:04:26.863Z,0.87
2023-02-08T02:07:00.337Z,0.95
2023-02-08T02:09:55.662Z,0.63
2023-02-08T02:12:23.909Z,1.16
2023-02-08T02:15:07.145Z,0.86
2023-02-08T02:17:39.522Z,1.04
2023-02-08T02:20:12.050Z,1.03
2023-02-08T02:23:27.846Z,1.19
2023-02-08T02:26:32.478Z,0.95
2023-02-08T02:29:29.735Z,1.21
2023-02-08T02:32:11.405Z,1.26
2023-02-08T02:34:51.667Z,0.91
2023-02-08T02:37:32.408Z,0.80
2023-02-08T02:40:07.309Z,0.99
2023-02-08T02:43:07.208Z,0.91
2023-02-08T02:45:38.005Z,0.70
2023-02-08T02:48:13.257Z,0.66
2023-02-08T02:50:45.930Z,0.28
2023-02-08T02:53:19.688Z,0.94
2023-02-08T02:55:55.537Z,0.94
2023-02-08T02:58:26.982Z,0.99
2023-02-08T03:01:00.951Z,0.86
2023-02-08T03:03:36.242Z,1.16
2023-02-08T03:06:10.959Z,1.43
2023-02-08T03:09:06.122Z,0.99
2023-02-08T03:11:36.722Z,1.30
2023-02-08T03:14:18.114Z,1.37
2023-02-08T03:17:01.785Z,1.34
2023-02-08T03:19:36.981Z,1.08
2023-02-08T03:22:13.449Z,1.38
2023-02-08T03:24:48.111Z,1.44
2023-02-08T03:27:23.637Z,1.57
2023-02-08T03:30:08.007Z,1.13
2023-02-08T03:32:42.972Z,1.27
2023-02-08T03:35:18.260Z,1.12
2023-02-08T03:37:50.824Z,0.98
2023-02-08T03:40:26.924Z,1.25
2023-02-08T03:43:04.708Z,1.23
2023-02-08T03:45:34.863Z,1.47
2023-02-08T03:48:06.065Z,1.46
2023-02-08T03:50:39.145Z,1.57
2023-02-08T03:53:08.441Z,1.73
2023-02-08T03:55:39.126Z,1.65
2023-02-08T03:58:15.019Z,1.74
2023-02-08T04:00:45.704Z,1.66
2023-02-08T04:03:21.518Z,1.39
2023-02-08T04:06:07.274Z,1.62
2023-02-08T04:08:38.658Z,1.50
2023-02-08T04:11:08.938Z,1.22
2023-02-08T04:13:39.527Z,1.32
2023-02-08T04:16:11.290Z,1.07
2023-02-08T04:18:44.468Z,1.24
2023-02-08T04:21:13.924Z,1.22
2023-02-08T04:23:41.733Z,1.34
2023-02-08T04:26:12.473Z,1.38
2023-02-08T04:28:40.672Z,1.36
2023-02-08T04:31:10.369Z,0.82
2023-02-08T04:33:38.333Z,1.10
2023-02-08T04:36:08.942Z,1.22
2023-02-08T04:38:38.238Z,1.35
2023-02-08T04:41:09.125Z,1.36
2023-02-08T04:43:39.328Z,1.46
2023-02-08T04:46:09.532Z,1.31
2023-02-08T04:48:38.726Z,1.48
2023-02-08T04:51:06.905Z,1.31
2023-02-08T04:53:35.709Z,1.42
2023-02-08T04:56:15.693Z,1.52
2023-02-08T04:58:45.600Z,1.54
2023-02-08T05:01:17.470Z,1.07
2023-02-08T05:03:45.478Z,1.56
2023-02-08T05:06:20.364Z,1.62
2023-02-08T05:08:48.206Z,1.04
2023-02-08T05:11:24.909Z,1.44
2023-02-08T05:13:53.723Z,1.12
2023-02-08T05:16:26.517Z,1.08
2023-02-08T05:18:54.710Z,0.95
2023-02-08T05:21:24.650Z,1.00
2023-02-08T05:23:54.673Z,0.94
2023-02-08T05:26:23.967Z,0.75
2023-02-08T05:28:52.154Z,0.98
2023-02-08T05:31:22.037Z,1.08
2023-02-08T05:33:50.227Z,1.07
2023-02-08T05:36:18.517Z,0.28
2023-02-08T05:38:46.575Z,1.24
2023-02-08T05:41:14.413Z,1.01
2023-02-08T05:43:47.647Z,1.07
2023-02-08T05:46:15.653Z,0.86
2023-02-08T05:48:46.326Z,0.88
2023-02-08T05:51:14.290Z,0.79
2023-02-08T05:53:43.546Z,0.60
2023-02-08T05:56:15.103Z,-0.18
2023-02-08T05:58:45.488Z,0.45
2023-02-08T06:01:14.668Z,0.41
2023-02-08T06:03:43.830Z,0.52
2023-02-08T06:06:14.424Z,0.62
2023-02-08T06:08:42.418Z,0.13
2023-02-08T06:11:13.318Z,0.63
2023-02-08T06:13:46.106Z,0.60
2023-02-08T06:16:14.506Z,0.52
2023-02-08T06:18:42.426Z,0.15
2023-02-08T06:21:10.660Z,0.20
2023-02-08T06:23:38.544Z,0.14
2023-02-08T06:26:06.748Z,-0.29
2023-02-08T06:28:34.555Z,0.23
2023-02-08T06:31:05.618Z,0.15
2023-02-08T06:33:33.601Z,0.40
2023-02-08T06:36:04.003Z,0.56
2023-02-08T06:38:31.792Z,0.58
2023-02-08T06:41:01.799Z,0.71
2023-02-08T06:43:32.780Z,0.72
2023-02-08T06:46:04.989Z,-0.07
2023-02-08T06:48:36.081Z,0.34
2023-02-08T06:51:04.105Z,0.47
2023-02-08T06:53:34.328Z,0.40
2023-02-08T06:56:02.198Z,0.52
2023-02-08T06:58:30.216Z,0.60
2023-02-08T07:01:01.941Z,0.79
2023-02-08T07:03:29.761Z,0.85
2023-02-08T07:06:05.229Z,1.01
2023-02-08T07:08:36.288Z,1.06
2023-02-08T07:11:10.742Z,1.00
2023-02-08T07:13:41.365Z,1.37
2023-02-08T07:16:11.013Z,1.02
2023-02-08T07:18:44.960Z,1.07
2023-02-08T07:21:14.233Z,1.24
2023-02-08T07:23:43.016Z,1.10
2023-02-08T07:26:17.538Z,1.16
2023-02-08T07:28:48.028Z,1.14
2023-02-08T07:31:18.096Z,0.77
2023-02-08T07:33:50.737Z,0.43
2023-02-08T07:36:20.153Z,0.69
2023-02-08T07:38:51.184Z,0.68
2023-02-08T07:41:21.688Z,0.56
2023-02-08T07:43:52.984Z,0.47
2023-02-08T07:46:24.773Z,0.38
2023-02-08T07:48:53.535Z,0.21
2023-02-08T07:51:25.352Z,0.34
2023-02-08T07:53:55.368Z,0.28
2023-02-08T07:56:32.829Z,0.30
2023-02-08T07:59:00.769Z,0.34
2023-02-08T08:01:29.600Z,0.23
2023-02-08T08:04:02.225Z,0.37
2023-02-08T08:06:31.827Z,0.31
2023-02-08T08:09:05.714Z,0.54
2023-02-08T08:11:33.655Z,0.70
2023-02-08T08:14:01.550Z,0.84
2023-02-08T08:16:29.854Z,0.84
2023-02-08T08:18:59.444Z,0.23
2023-02-08T08:21:31.749Z,0.47
2023-02-08T08:23:59.645Z,0.88
2023-02-08T08:26:35.317Z,0.59
2023-02-08T08:29:03.380Z,0.11
2023-02-08T08:31:31.990Z,0.24
2023-02-08T08:34:00.372Z,0.28
2023-02-08T08:36:31.109Z,0.16
2023-02-08T08:39:02.862Z,0.42
2023-02-08T08:41:35.937Z,0.60
2023-02-08T08:44:06.925Z,0.35
2023-02-08T08:46:35.133Z,-0.37
2023-02-08T08:49:07.756Z,-0.63
2023-02-08T08:51:36.311Z,0.18
2023-02-08T08:54:16.617Z,0.49
2023-02-08T08:56:47.121Z,0.44
2023-02-08T08:59:15.384Z,0.02
2023-02-08T09:01:43.345Z,-1.68
2023-02-08T09:04:11.904Z,0.52
2023-02-08T09:06:40.028Z,0.52
2023-02-08T09:09:18.647Z,0.39
2023-02-08T09:11:46.689Z,0.32
2023-02-08T09:14:17.784Z,-0.14
2023-02-08T09:16:51.057Z,0.56
2023-02-08T09:19:19.920Z,0.53
2023-02-08T09:21:47.896Z,0.81
2023-02-08T09:24:22.984Z,0.50
2023-02-08T09:26:55.771Z,0.85
2023-02-08T09:29:30.335Z,0.95
2023-02-08T09:31:58.632Z,1.23
2023-02-08T09:34:28.428Z,1.35
2023-02-08T09:36:56.367Z,1.47
2023-02-08T09:39:26.907Z,1.44
2023-02-08T09:42:10.705Z,1.29
2023-02-08T09:44:46.914Z,1.11
2023-02-08T09:47:20.060Z,1.12
2023-02-08T09:49:57.493Z,1.44
2023-02-08T09:52:33.458Z,1.60
2023-02-08T09:55:05.997Z,1.60
2023-02-08T09:57:36.285Z,1.84
2023-02-08T10:00:08.643Z,1.50
2023-02-08T10:02:36.606Z,1.95
2023-02-08T10:05:11.012Z,1.71
2023-02-08T10:07:43.849Z,2.15
2023-02-08T10:10:19.752Z,2.07
2023-02-08T10:12:57.579Z,2.06
2023-02-08T10:15:34.856Z,2.01
2023-02-08T10:18:44.077Z,2.53
2023-02-08T10:21:25.370Z,2.59
2023-02-08T10:24:23.013Z,2.47
2023-02-08T10:26:57.097Z,2.30
2023-02-08T10:29:53.263Z,2.44
2023-02-08T10:32:29.250Z,2.64
2023-02-08T10:35:04.614Z,2.69
2023-02-08T10:37:36.738Z,2.69
2023-02-08T10:40:18.283Z,2.86
2023-02-08T10:42:50.524Z,0.82
2023-02-08T10:45:24.933Z,2.55
2023-02-08T10:47:55.641Z,3.03
2023-02-08T10:50:30.075Z,3.38
2023-02-08T10:52:58.212Z,3.30
2023-02-08T10:55:36.480Z,3.13
2023-02-08T10:58:10.107Z,3.07
2023-02-08T11:00:41.317Z,3.32
2023-02-08T11:03:16.766Z,3.26
2023-02-08T11:05:45.753Z,3.60
2023-02-08T11:08:15.979Z,3.52
2023-02-08T11:10:46.938Z,3.43
2023-02-08T11:13:22.231Z,3.15
2023-02-08T11:15:53.956Z,3.18
2023-02-08T11:18:28.010Z,3.45
2023-02-08T11:21:01.673Z,3.73
2023-02-08T11:23:34.388Z,3.73
2023-02-08T11:26:18.227Z,3.80
2023-02-08T11:29:13.356Z,4.28
2023-02-08T11:31:50.555Z,4.02
2023-02-08T11:34:33.072Z,3.52
2023-02-08T11:37:10.591Z,4.24
2023-02-08T11:39:42.368Z,4.37
2023-02-08T11:42:21.795Z,4.92
2023-02-08T11:44:55.054Z,4.67
2023-02-08T11:47:27.732Z,4.35
2023-02-08T11:49:57.901Z,4.84
2023-02-08T11:52:28.044Z,4.55
2023-02-08T11:54:57.870Z,4.79
2023-02-08T11:57:27.927Z,4.50
2023-02-08T12:00:19.309Z,4.66
2023-02-08T12:02:47.567Z,4.92
2023-02-08T12:05:20.188Z,4.98
2023-02-08T12:08:00.975Z,5.12
2023-02-08T12:10:49.027Z,5.31
2023-02-08T12:13:35.123Z,5.42
2023-02-08T12:16:13.604Z,5.54
2023-02-08T12:18:53.233Z,5.45
2023-02-08T12:21:23.834Z,5.51
2023-02-08T12:23:56.051Z,5.76
2023-02-08T12:26:33.976Z,6.40
2023-02-08T12:29:17.706Z,6.34
2023-02-08T12:32:18.421Z,6.55
2023-02-08T12:34:57.002Z,6.80
2023-02-08T12:37:54.002Z,6.35
2023-02-08T12:40:49.949Z,6.36
2023-02-08T12:43:27.134Z,5.65
2023-02-08T12:46:12.768Z,6.47
2023-02-08T12:49:06.671Z,7.26
2023-02-08T12:51:44.206Z,6.77
2023-02-08T12:54:16.096Z,6.84
2023-02-08T12:57:00.373Z,6.98
2023-02-08T12:59:37.976Z,6.97
2023-02-08T13:02:14.929Z,7.60
2023-02-08T13:04:47.327Z,8.07
2023-02-08T13:07:19.729Z,8.09
2023-02-08T13:09:51.977Z,8.02
2023-02-08T13:12:25.405Z,7.81
2023-02-08T13:14:57.321Z,8.24
2023-02-08T13:17:28.373Z,6.98
2023-02-08T13:20:01.388Z,7.40
2023-02-08T13:22:33.526Z,7.79
2023-02-08T13:25:07.871Z,8.06
2023-02-08T13:27:36.367Z,8.00
2023-02-08T13:30:08.487Z,7.49
2023-02-08T13:32:44.034Z,8.07
2023-02-08T13:35:21.485Z,8.11
2023-02-08T13:37:51.944Z,7.65
2023-02-08T13:40:21.914Z,8.03
2023-02-08T13:42:51.704Z,7.89
2023-02-08T13:45:31.164Z,8.02
2023-02-08T13:48:01.200Z,7.90
2023-02-08T13:50:59.094Z,5.47
2023-02-08T13:54:05.956Z,8.52
2023-02-08T13:56:45.435Z,8.23
2023-02-08T13:59:29.077Z,8.47
2023-02-08T14:02:34.318Z,8.54
2023-02-08T14:05:45.346Z,8.46
2023-02-08T14:08:22.686Z,7.94
2023-02-08T14:11:04.944Z,7.36
2023-02-08T14:13:34.134Z,7.67
2023-02-08T14:16:31.308Z,8.00
2023-02-08T14:19:02.930Z,8.20
2023-02-08T14:21:35.934Z,7.97
2023-02-08T14:24:08.393Z,7.50
2023-02-08T14:26:39.282Z,7.68
2023-02-08T14:29:08.067Z,7.66
2023-02-08T14:31:45.343Z,6.87
2023-02-08T14:34:34.361Z,7.03
2023-02-08T14:37:10.560Z,7.46
2023-02-08T14:39:40.289Z,7.16
2023-02-08T14:42:14.336Z,7.07
2023-02-08T14:44:57.795Z,7.04
2023-02-08T14:48:05.420Z,7.05
2023-02-08T14:50:40.361Z,7.61
2023-02-08T14:53:20.178Z,7.06
2023-02-08T14:55:56.971Z,6.43
2023-02-08T14:58:30.950Z,6.63
2023-02-08T15:01:02.077Z,6.35
2023-02-08T15:03:32.674Z,6.12
2023-02-08T15:06:33.926Z,6.45
2023-02-08T15:09:05.624Z,5.96
2023-02-08T15:11:35.975Z,6.32
2023-02-08T15:14:05.981Z,6.31
2023-02-08T15:16:36.210Z,6.28
2023-02-08T15:19:11.148Z,6.66
2023-02-08T15:21:41.015Z,5.98
2023-02-08T15:24:16.185Z,5.59
2023-02-08T15:26:50.348Z,5.84
2023-02-08T15:29:30.084Z,5.83
2023-02-08T15:32:07.916Z,5.62
2023-02-08T15:34:36.066Z,5.14
2023-02-08T15:37:07.081Z,5.58
2023-02-08T15:39:38.563Z,5.02
2023-02-08T15:42:17.297Z,5.06
2023-02-08T15:44:45.602Z,4.88
2023-02-08T15:47:17.515Z,4.97
2023-02-08T15:49:48.980Z,4.51
2023-02-08T15:52:18.828Z,4.99
2023-02-08T15:54:47.153Z,4.69
2023-02-08T15:57:25.732Z,4.65
2023-02-08T15:59:53.957Z,4.68
2023-02-08T16:02:28.970Z,4.38
2023-02-08T16:04:57.126Z,4.17
2023-02-08T16:07:31.153Z,4.13
2023-02-08T16:09:59.391Z,4.27
2023-02-08T16:12:29.318Z,4.19
2023-02-08T16:14:57.426Z,4.20
2023-02-08T16:17:38.427Z,4.41
2023-02-08T16:20:30.091Z,4.35
2023-02-08T16:23:00.575Z,4.42
2023-02-08T16:25:38.522Z,4.17
2023-02-08T16:28:25.995Z,4.16
2023-02-08T16:30:54.252Z,4.26
2023-02-08T16:33:22.199Z,4.39
2023-02-08T16:35:51.413Z,4.24
2023-02-08T16:38:24.016Z,4.27
2023-02-08T16:40:53.958Z,4.50
2023-02-08T16:43:27.076Z,4.45
2023-02-08T16:46:21.149Z,4.03
2023-02-08T16:48:55.864Z,4.30
2023-02-08T16:51:26.308Z,3.98
2023-02-08T16:53:58.057Z,4.06
2023-02-08T16:56:28.961Z,4.14
2023-02-08T16:58:58.490Z,4.02
2023-02-08T17:01:28.541Z,4.25
2023-02-08T17:03:56.652Z,4.57
2023-02-08T17:06:33.166Z,4.85
2023-02-08T17:09:04.818Z,4.84
2023-02-08T17:11:34.329Z,4.83
2023-02-08T17:14:07.810Z,4.89
2023-02-08T17:16:36.556Z,5.11
2023-02-08T17:19:08.544Z,5.06
2023-02-08T17:21:42.366Z,5.03
2023-02-08T17:24:12.025Z,5.01
2023-02-08T17:26:42.174Z,4.88
2023-02-08T17:29:12.278Z,4.79
2023-02-08T17:31:44.643Z,4.71
2023-02-08T17:34:15.295Z,4.76
2023-02-08T17:36:43.075Z,4.82
2023-02-08T17:39:17.872Z,4.75
2023-02-08T17:41:45.674Z,4.80
2023-02-08T17:44:19.116Z,4.60
2023-02-08T17:46:48.240Z,4.79
2023-02-08T17:49:16.316Z,4.91
2023-02-08T17:51:45.313Z,4.97
2023-02-08T17:54:14.357Z,5.04
2023-02-08T17:56:42.165Z,4.99
2023-02-08T17:59:10.000Z,4.97
2023-02-08T18:01:41.495Z,4.91
2023-02-08T18:04:14.232Z,4.76
2023-02-08T18:06:42.104Z,5.00
2023-02-08T18:09:09.902Z,5.02
2023-02-08T18:11:41.392Z,5.14
2023-02-08T18:14:21.792Z,5.00
2023-02-08T18:16:54.803Z,4.68
2023-02-08T18:19:22.842Z,4.91
2023-02-08T18:21:50.924Z,4.84
2023-02-08T18:24:18.909Z,5.39
2023-02-08T18:26:49.539Z,5.51
2023-02-08T18:29:17.284Z,5.19
2023-02-08T18:31:45.202Z,5.44
2023-02-08T18:34:16.338Z,5.31
2023-02-08T18:36:44.286Z,5.38
2023-02-08T18:39:14.252Z,5.13
2023-02-08T18:41:44.730Z,4.63
2023-02-08T18:44:14.926Z,3.93
2023-02-08T18:46:47.701Z,4.37
2023-02-08T18:49:17.062Z,3.91
2023-02-08T18:51:46.940Z,3.88
2023-02-08T18:54:19.296Z,4.05
2023-02-08T18:56:47.215Z,3.89
2023-02-08T18:59:18.895Z,3.88
2023-02-08T19:01:49.516Z,3.66
2023-02-08T19:04:21.549Z,3.17
2023-02-08T19:06:49.471Z,3.69
2023-02-08T19:09:17.424Z,3.48
2023-02-08T19:11:45.628Z,3.12
2023-02-08T19:14:15.495Z,2.50
2023-02-08T19:16:44.080Z,2.47
2023-02-08T19:19:13.126Z,2.93
2023-02-08T19:21:42.768Z,3.20
2023-02-08T19:24:15.042Z,3.06
2023-02-08T19:26:43.909Z,2.64
2023-02-08T19:29:14.000Z,2.86
2023-02-08T19:31:42.470Z,2.93
2023-02-08T19:34:14.787Z,2.95
2023-02-08T19:36:49.282Z,3.03
2023-02-08T19:39:19.062Z,3.05
2023-02-08T19:41:47.301Z,3.16
2023-02-08T19:44:17.381Z,3.43
2023-02-08T19:46:50.304Z,3.58
2023-02-08T19:49:21.806Z,3.58
2023-02-08T19:51:51.417Z,3.65
2023-02-08T19:54:20.551Z,3.36
2023-02-08T19:56:50.388Z,3.43
2023-02-08T19:59:24.833Z,3.47
2023-02-08T20:01:59.527Z,3.29
2023-02-08T20:04:32.505Z,3.21
2023-02-08T20:07:01.678Z,3.10
2023-02-08T20:09:29.571Z,3.28
2023-02-08T20:12:00.465Z,3.30
2023-02-08T20:14:31.242Z,3.31
2023-02-08T20:16:59.255Z,3.10
2023-02-08T20:19:39.331Z,3.18
2023-02-08T20:22:09.214Z,3.16
2023-02-08T20:24:44.873Z,2.73
2023-02-08T20:27:13.930Z,2.71
2023-02-08T20:29:45.689Z,2.74
2023-02-08T20:32:13.619Z,2.72
2023-02-08T20:34:53.932Z,3.03
2023-02-08T20:37:30.335Z,3.34
2023-02-08T20:40:03.715Z,3.28
2023-02-08T20:42:33.691Z,3.32
2023-02-08T20:45:06.866Z,3.18
2023-02-08T20:47:45.956Z,3.08
2023-02-08T20:50:19.117Z,3.59
2023-02-08T20:52:49.203Z,3.14
2023-02-08T20:55:20.046Z,3.76
2023-02-08T20:57:47.970Z,4.08
2023-02-08T21:00:19.402Z,4.01
2023-02-08T21:02:52.295Z,4.09
2023-02-08T21:05:27.491Z,4.61
2023-02-08T21:07:56.729Z,4.32
2023-02-08T21:10:24.835Z,4.09
2023-02-08T21:12:52.662Z,4.35
2023-02-08T21:15:20.497Z,4.14
2023-02-08T21:17:50.700Z,4.58
2023-02-08T21:20:20.684Z,4.48
2023-02-08T21:22:53.478Z,4.62
2023-02-08T21:25:27.737Z,3.48
2023-02-08T21:27:57.807Z,4.36
2023-02-08T21:30:27.847Z,3.68
2023-02-08T21:32:55.649Z,4.14
2023-02-08T21:35:25.651Z,4.22
2023-02-08T21:37:56.000Z,4.10
2023-02-08T21:40:26.328Z,3.77
2023-02-08T21:42:54.184Z,3.81
2023-02-08T21:45:24.738Z,3.54
2023-02-08T21:47:52.609Z,3.12
2023-02-08T21:50:37.944Z,3.79
2023-02-08T21:53:28.923Z,3.43
2023-02-08T21:56:04.560Z,3.58
2023-02-08T21:58:32.452Z,4.14
2023-02-08T22:01:02.255Z,3.19
2023-02-08T22:03:34.452Z,3.94
2023-02-08T22:06:02.281Z,3.90
2023-02-08T22:08:32.932Z,3.97
2023-02-08T22:11:08.981Z,3.97
2023-02-08T22:13:36.863Z,3.71
2023-02-08T22:16:08.981Z,3.74
2023-02-08T22:18:37.433Z,3.80
2023-02-08T22:21:05.984Z,3.72
2023-02-08T22:23:35.942Z,3.37
2023-02-08T22:26:09.885Z,3.27
2023-02-08T22:28:38.278Z,3.14
2023-02-08T22:31:15.952Z,3.03
2023-02-08T22:33:44.208Z,3.12
2023-02-08T22:36:12.928Z,3.02
2023-02-08T22:38:43.863Z,3.09
2023-02-08T22:41:16.507Z,3.14
2023-02-08T22:43:50.255Z,3.19
2023-02-08T22:46:20.694Z,3.06
2023-02-08T22:48:51.635Z,3.29
2023-02-08T22:51:26.734Z,3.34
2023-02-08T22:53:57.245Z,3.18
2023-02-08T22:56:34.496Z,2.82
2023-02-08T22:59:03.455Z,3.31
2023-02-08T23:01:31.674Z,1.21
2023-02-08T23:04:01.563Z,2.33
2023-02-08T23:06:29.435Z,2.56
2023-02-08T23:08:58.879Z,2.08
2023-02-08T23:11:32.122Z,1.85
2023-02-08T23:14:05.055Z,2.59
2023-02-08T23:16:33.008Z,1.85
2023-02-08T23:19:01.108Z,2.90
2023-02-08T23:21:31.936Z,2.75
2023-02-08T23:24:02.551Z,3.03
2023-02-08T23:26:40.152Z,2.61
2023-02-08T23:29:08.351Z,2.74
2023-02-08T23:31:40.105Z,3.01
2023-02-08T23:34:08.420Z,2.82
2023-02-08T23:36:38.639Z,2.98
2023-02-08T23:39:06.926Z,2.96
2023-02-08T23:41:35.353Z,3.23
2023-02-08T23:44:07.630Z,3.28
2023-02-08T23:46:38.129Z,3.14
2023-02-08T23:49:08.746Z,2.74
2023-02-08T23:51:39.466Z,3.56
2023-02-08T23:54:09.214Z,3.75
2023-02-08T23:56:37.016Z,3.43
2023-02-08T23:59:08.259Z,3.69
